Time;durP1;ratioP1;P1;durP2;ratioP2;P2;SDS_P1;SDS_P2;PMS_P1;PMS_P2;Temp;Humidity;BMP_temperature;BMP_pressure;BME280_temperature;BME280_humidity;BME280_pressure;Samples;Min_cycle;Max_cycle;Signal;HPM_P1;HPM_P2
2022/03/14 00:01:39;;;;;;;13.98;7.70;;;;;;;3.64;60.18;99024.38;4990802;28;20138;-83
2022/03/14 00:04:06;;;;;;;17.30;8.82;;;;;;;3.69;60.38;99050.84;5006257;28;20489;-83
2022/03/14 00:06:35;;;;;;;15.82;8.25;;;;;;;3.65;61.51;99038.69;5005929;28;20096;-83
2022/03/14 00:09:06;;;;;;;21.40;9.60;;;;;;;3.71;62.38;99055.06;5002627;28;20517;-83
2022/03/14 00:11:37;;;;;;;14.45;7.68;;;;;;;3.77;63.09;99050.97;4992469;28;20304;-81
2022/03/14 00:14:08;;;;;;;21.23;8.48;;;;;;;3.67;63.14;99042.06;4989397;28;20050;-82
2022/03/14 00:16:39;;;;;;;20.17;8.25;;;;;;;3.80;63.05;99074.88;4988388;28;20141;-82
2022/03/14 00:19:07;;;;;;;16.48;8.63;;;;;;;3.76;63.65;99072.63;5024482;28;20058;-83
2022/03/14 00:21:39;;;;;;;19.20;9.65;;;;;;;3.80;64.09;99104.47;4995981;28;20058;-82
2022/03/14 00:24:07;;;;;;;24.10;9.73;;;;;;;3.79;64.52;99104.59;5000354;28;20046;-83
2022/03/14 00:26:36;;;;;;;20.40;9.90;;;;;;;3.87;65.02;99137.88;5000664;28;20065;-83
2022/03/14 00:29:04;;;;;;;20.73;10.65;;;;;;;3.85;64.30;99131.78;4987485;28;20285;-83
2022/03/14 00:31:30;;;;;;;23.95;10.35;;;;;;;3.91;64.86;99149.19;4992330;28;20454;-83
2022/03/14 00:33:57;;;;;;;22.83;10.95;;;;;;;3.83;63.97;99139.13;5005614;28;20512;-82
2022/03/14 00:36:25;;;;;;;18.98;8.90;;;;;;;3.97;63.62;99161.22;5024760;28;20053;-83
2022/03/14 00:38:53;;;;;;;19.75;9.20;;;;;;;3.83;64.29;99155.28;5014938;28;20042;-83
2022/03/14 00:41:23;;;;;;;21.30;8.75;;;;;;;3.80;66.69;99181.59;5002212;28;20038;-82
2022/03/14 00:43:51;;;;;;;18.60;9.45;;;;;;;3.83;64.68;99186.69;5009599;28;20586;-83
2022/03/14 00:46:21;;;;;;;18.70;9.15;;;;;;;3.87;64.32;99194.34;4989804;28;20047;-83
2022/03/14 00:48:48;;;;;;;16.50;9.38;;;;;;;3.82;64.86;99195.75;4989109;28;20133;-83
2022/03/14 00:51:14;;;;;;;15.48;9.43;;;;;;;3.75;66.78;99200.84;5004729;28;20397;-82
2022/03/14 00:53:42;;;;;;;20.40;10.20;;;;;;;3.83;67.38;99210.91;4991859;28;20048;-83
2022/03/14 00:56:09;;;;;;;19.27;10.02;;;;;;;3.84;68.59;99197.31;4988274;28;20078;-83
2022/03/14 00:58:36;;;;;;;17.67;9.20;;;;;;;3.88;69.84;99236.41;4993717;28;20073;-82
2022/03/14 01:01:05;;;;;;;25.30;9.05;;;;;;;3.92;67.84;99244.19;5050153;28;20077;-83
2022/03/14 01:03:33;;;;;;;18.13;9.48;;;;;;;3.99;68.22;99223.78;5002373;28;20054;-83
2022/03/14 01:06:00;;;;;;;19.23;9.27;;;;;;;3.95;68.92;99217.84;4988927;28;20137;-83
2022/03/14 01:08:27;;;;;;;18.85;9.73;;;;;;;3.94;69.71;99242.19;4994467;28;20076;-83
2022/03/14 01:10:53;;;;;;;22.73;9.25;;;;;;;3.94;68.80;99253.78;4997356;28;20057;-83
2022/03/14 01:13:20;;;;;;;17.77;9.32;;;;;;;3.98;69.24;99247.16;4987916;28;20050;-82
2022/03/14 01:15:47;;;;;;;18.42;9.60;;;;;;;3.98;68.50;99265.97;4998038;28;20148;-83
2022/03/14 01:18:15;;;;;;;18.88;9.40;;;;;;;3.92;69.08;99255.78;5004317;28;20057;-83
2022/03/14 01:20:42;;;;;;;18.40;9.75;;;;;;;4.00;69.83;99274.75;4988744;28;20103;-83
2022/03/14 01:23:09;;;;;;;20.70;10.32;;;;;;;4.15;70.34;99294.03;4992418;28;20054;-83
2022/03/14 01:25:36;;;;;;;18.27;10.00;;;;;;;4.01;71.39;99268.38;4990200;28;20141;-82
2022/03/14 01:28:03;;;;;;;24.73;11.93;;;;;;;4.19;67.11;99281.16;5004241;28;20490;-83
2022/03/14 01:30:30;;;;;;;18.67;9.88;;;;;;;4.30;69.87;99289.06;5008471;28;20056;-83
2022/03/14 01:32:57;;;;;;;21.40;10.98;;;;;;;4.30;71.01;99293.63;5000072;28;20096;-83
2022/03/14 01:35:25;;;;;;;21.67;9.95;;;;;;;4.23;70.74;99302.25;5077161;28;20043;-83
2022/03/14 01:37:52;;;;;;;21.20;10.90;;;;;;;4.14;72.57;99299.53;5001619;28;20252;-83
2022/03/14 01:40:19;;;;;;;20.35;10.60;;;;;;;4.15;69.74;99299.41;5003969;28;20051;-83
2022/03/14 01:42:46;;;;;;;25.65;10.75;;;;;;;4.30;66.81;99307.06;4989401;28;20055;-83
2022/03/14 01:45:13;;;;;;;26.23;9.90;;;;;;;4.58;67.79;99343.06;5007668;28;20132;-83
2022/03/14 01:47:41;;;;;;;19.63;11.38;;;;;;;4.51;66.99;99332.00;4995355;28;20078;-83
2022/03/14 01:50:09;;;;;;;22.08;11.13;;;;;;;4.57;68.10;99335.97;4990133;28;20057;-83
2022/03/14 01:52:37;;;;;;;18.20;9.68;;;;;;;4.89;68.68;99362.63;5072573;28;20126;-83
2022/03/14 01:55:06;;;;;;;20.88;11.35;;;;;;;4.84;69.12;99350.56;4992924;28;20133;-83
2022/03/14 01:57:34;;;;;;;24.70;11.52;;;;;;;4.95;70.04;99359.34;5007504;28;20058;-83
2022/03/14 02:00:01;;;;;;;21.27;11.65;;;;;;;5.13;77.45;99363.97;4994720;28;20046;-83
2022/03/14 02:02:28;;;;;;;22.33;12.40;;;;;;;5.43;83.08;99389.00;4988393;28;20142;-82
2022/03/14 02:04:54;;;;;;;21.05;10.65;;;;;;;5.53;85.77;99397.09;4988449;28;20081;-82
2022/03/14 02:07:21;;;;;;;19.20;11.07;;;;;;;5.67;87.29;99408.25;5001252;28;20048;-83
2022/03/14 02:09:49;;;;;;;21.10;11.43;;;;;;;5.69;89.16;99416.19;5057952;28;20039;-82
2022/03/14 02:12:16;;;;;;;21.17;10.00;;;;;;;5.85;93.72;99413.69;4991702;28;20502;-83
2022/03/14 02:14:42;;;;;;;18.63;9.77;;;;;;;5.89;94.12;99408.88;5001827;28;20510;-83
2022/03/14 02:17:10;;;;;;;14.77;7.53;;;;;;;6.03;97.61;99427.28;5004932;28;20046;-83
2022/03/14 02:19:37;;;;;;;7.13;4.90;;;;;;;6.13;100.00;99421.00;5007505;28;20146;-83
2022/03/14 02:22:09;;;;;;;5.13;2.10;;;;;;;6.57;100.00;99442.78;5048933;28;20048;-82
2022/03/14 02:24:36;;;;;;;1.88;1.27;;;;;;;6.93;100.00;99460.88;5023463;28;20485;-83
2022/03/14 02:27:04;;;;;;;3.78;2.03;;;;;;;6.87;100.00;99446.13;4991398;28;20443;-83
2022/03/14 02:29:31;;;;;;;2.03;1.38;;;;;;;7.02;100.00;99462.66;4993780;28;21728;-82
2022/03/14 02:31:58;;;;;;;2.47;1.40;;;;;;;6.99;100.00;99454.84;4996211;27;20061;-83
2022/03/14 02:34:24;;;;;;;1.98;1.63;;;;;;;6.99;100.00;99465.66;4990433;28;20145;-83
2022/03/14 02:36:51;;;;;;;2.30;1.40;;;;;;;7.08;100.00;99472.84;5005883;28;20046;-83
2022/03/14 02:39:19;;;;;;;2.03;1.20;;;;;;;7.09;100.00;99478.09;4999267;28;20440;-82
2022/03/14 02:41:45;;;;;;;1.67;1.25;;;;;;;7.09;100.00;99483.50;5009188;28;20048;-82
2022/03/14 02:44:13;;;;;;;2.33;1.58;;;;;;;7.15;100.00;99494.69;4990622;28;20545;-82
2022/03/14 02:49:21;;;;;;;4.95;1.58;;;;;;;7.17;100.00;99514.31;5004392;27;20381;-83
2022/03/14 02:51:47;;;;;;;2.70;1.58;;;;;;;7.17;100.00;99523.28;4993210;28;20054;-83
2022/03/14 02:54:14;;;;;;;2.22;1.48;;;;;;;7.08;100.00;99518.81;5029385;28;20051;-82
2022/03/14 02:56:42;;;;;;;3.47;1.77;;;;;;;7.04;100.00;99507.44;5011743;28;20056;-82
2022/03/14 02:59:09;;;;;;;3.45;1.83;;;;;;;6.97;100.00;99519.88;5003853;28;20058;-83
2022/03/14 03:01:36;;;;;;;2.45;1.63;;;;;;;6.99;100.00;99539.50;4998897;28;20058;-82
2022/03/14 03:04:04;;;;;;;2.83;1.60;;;;;;;6.95;100.00;99535.38;4993666;28;20058;-83
2022/03/14 03:06:32;;;;;;;3.22;1.80;;;;;;;6.90;100.00;99537.69;4993213;28;20042;-82
2022/03/14 03:09:03;;;;;;;2.63;1.55;;;;;;;6.89;100.00;99536.00;4997691;28;20402;-82
2022/03/14 03:11:29;;;;;;;;;;;;;;;6.96;100.00;99549.75;4998230;28;20045;-82
2022/03/14 03:13:57;;;;;;;2.20;1.30;;;;;;;6.93;100.00;99550.06;5002344;28;20011;-82
2022/03/14 03:16:24;;;;;;;2.33;1.70;;;;;;;6.87;100.00;99544.25;5004747;28;20093;-82
2022/03/14 03:18:50;;;;;;;4.47;1.73;;;;;;;6.94;100.00;99555.31;4989872;28;20054;-82
2022/03/14 03:21:17;;;;;;;1.77;1.50;;;;;;;6.82;100.00;99562.78;4990429;28;20125;-82
2022/03/14 03:23:44;;;;;;;3.53;2.20;;;;;;;6.70;100.00;99545.09;5002237;28;20046;-82
2022/03/14 03:26:10;;;;;;;2.75;1.75;;;;;;;6.75;100.00;99572.50;4993697;28;20100;-82
2022/03/14 03:28:38;;;;;;;2.42;2.03;;;;;;;6.63;100.00;99552.09;5046240;28;20048;-81
2022/03/14 03:31:07;;;;;;;2.83;1.75;;;;;;;6.75;100.00;99582.47;5094522;28;20058;-81
2022/03/14 03:33:35;;;;;;;3.30;2.47;;;;;;;6.71;100.00;99592.69;4989474;28;20069;-81
2022/03/14 03:36:02;;;;;;;3.38;1.80;;;;;;;6.55;100.00;99577.16;4992523;28;20046;-81
2022/03/14 03:38:29;;;;;;;4.95;1.90;;;;;;;6.56;100.00;99586.94;5008616;28;20069;-81
2022/03/14 03:40:56;;;;;;;2.22;1.80;;;;;;;6.66;100.00;99605.81;5009107;28;20481;-81
2022/03/14 03:43:23;;;;;;;2.28;1.38;;;;;;;6.61;100.00;99605.41;4998969;28;20061;-80
2022/03/14 03:45:49;;;;;;;2.33;1.50;;;;;;;6.57;100.00;99622.91;5002644;28;20064;-80
2022/03/14 03:48:18;;;;;;;3.58;1.60;;;;;;;6.57;100.00;99626.47;4989562;28;20042;-80
2022/03/14 03:50:45;;;;;;;2.40;1.40;;;;;;;6.40;100.00;99605.63;5003752;28;20057;-81
2022/03/14 03:53:11;;;;;;;1.27;1.15;;;;;;;6.49;100.00;99626.38;4991931;28;20054;-81
2022/03/14 03:55:38;;;;;;;2.78;1.20;;;;;;;6.36;100.00;99610.47;4988562;28;20061;-80
2022/03/14 03:58:05;;;;;;;2.15;1.58;;;;;;;6.36;100.00;99611.31;5000419;28;20121;-80
2022/03/14 04:00:32;;;;;;;2.33;1.58;;;;;;;6.46;100.00;99643.72;5007062;28;20181;-80
2022/03/14 04:02:59;;;;;;;1.83;1.45;;;;;;;6.34;100.00;99624.13;5007667;28;20054;-80
2022/03/14 04:05:27;;;;;;;1.65;1.27;;;;;;;6.28;100.00;99629.25;4996522;28;20070;-80
2022/03/14 04:07:58;;;;;;;2.50;1.50;;;;;;;6.44;100.00;99647.53;4992405;28;20046;-80
2022/03/14 04:10:29;;;;;;;1.52;1.35;;;;;;;6.48;100.00;99648.97;4995926;28;20047;-80
2022/03/14 04:13:01;;;;;;;2.25;1.52;;;;;;;6.39;100.00;99650.69;5001409;28;20155;-80
2022/03/14 04:15:28;;;;;;;1.65;1.38;;;;;;;6.44;100.00;99640.28;4995079;28;20046;-80
2022/03/14 04:18:00;;;;;;;1.63;1.42;;;;;;;6.31;100.00;99624.41;4997813;28;20046;-80
2022/03/14 04:20:29;;;;;;;2.53;1.58;;;;;;;6.32;100.00;99641.47;5006397;28;20048;-80
2022/03/14 04:22:55;;;;;;;3.25;2.20;;;;;;;6.44;100.00;99658.34;5006509;28;20057;-80
2022/03/14 04:25:22;;;;;;;1.92;1.55;;;;;;;6.42;100.00;99665.75;5003010;28;20070;-80
2022/03/14 04:27:49;;;;;;;3.22;1.70;;;;;;;6.36;100.00;99659.94;4988856;28;20055;-80
2022/03/14 04:30:16;;;;;;;2.63;1.80;;;;;;;6.42;100.00;99673.88;4989150;28;20489;-84
2022/03/14 04:32:43;;;;;;;2.38;2.00;;;;;;;6.26;100.00;99675.28;4989220;28;20126;-81
2022/03/14 04:35:10;;;;;;;3.90;1.95;;;;;;;6.20;100.00;99668.63;5004866;28;20050;-79
2022/03/14 04:37:41;;;;;;;6.80;2.45;;;;;;;6.38;100.00;99684.97;4999859;28;20042;-80
2022/03/14 04:40:09;;;;;;;1.92;1.58;;;;;;;6.35;100.00;99692.47;5000965;28;20056;-79
2022/03/14 04:42:40;;;;;;;2.95;2.08;;;;;;;6.34;100.00;99697.03;5001860;28;20053;-82
2022/03/14 04:45:07;;;;;;;2.45;1.77;;;;;;;6.32;100.00;99677.44;5031263;28;20097;-81
2022/03/14 04:47:37;;;;;;;3.10;1.85;;;;;;;6.40;100.00;99678.53;5013229;28;20050;-79
2022/03/14 04:50:05;;;;;;;2.72;2.13;;;;;;;6.34;100.00;99699.75;5006156;28;20055;-80
2022/03/14 04:52:31;;;;;;;7.72;3.30;;;;;;;6.24;100.00;99696.19;5003787;28;20042;-81
2022/03/14 04:54:59;;;;;;;10.35;4.70;;;;;;;6.40;100.00;99721.75;4993728;28;20061;-80
2022/03/14 04:57:27;;;;;;;5.10;2.75;;;;;;;6.35;100.00;99719.47;4997788;28;20417;-80
2022/03/14 04:59:53;;;;;;;14.65;5.43;;;;;;;6.12;100.00;99702.75;5002880;28;20508;-80
2022/03/14 05:02:21;;;;;;;4.35;2.70;;;;;;;6.25;100.00;99719.50;5006913;28;20056;-81
2022/03/14 05:04:48;;;;;;;3.15;2.35;;;;;;;6.29;100.00;99741.66;5045661;28;20046;-80
2022/03/14 05:07:14;;;;;;;4.78;2.63;;;;;;;6.25;100.00;99749.22;5007546;28;20052;-80
2022/03/14 05:09:41;;;;;;;4.25;2.47;;;;;;;6.18;100.00;99727.31;5000127;28;20401;-81
2022/03/14 05:12:11;;;;;;;3.78;2.58;;;;;;;6.23;100.00;99744.94;4989094;28;20057;-81
2022/03/14 05:14:39;;;;;;;5.50;2.03;;;;;;;6.14;100.00;99736.72;4987872;28;20053;-81
2022/03/14 05:17:05;;;;;;;3.10;2.20;;;;;;;6.17;100.00;99732.84;4991574;28;20042;-81
2022/03/14 05:19:32;;;;;;;4.80;2.33;;;;;;;6.26;100.00;99750.06;5008562;28;20046;-81
2022/03/14 05:21:58;;;;;;;4.03;2.33;;;;;;;6.22;100.00;99748.63;5008251;28;20077;-81
2022/03/14 05:24:25;;;;;;;3.72;2.65;;;;;;;6.29;100.00;99742.53;5001526;28;20486;-81
2022/03/14 05:26:53;;;;;;;3.13;2.38;;;;;;;6.35;100.00;99755.47;4988593;28;20050;-81
2022/03/14 05:29:21;;;;;;;4.07;2.55;;;;;;;6.32;100.00;99744.94;5044920;28;20428;-82
2022/03/14 05:31:48;;;;;;;5.30;2.28;;;;;;;6.12;100.00;99732.44;5095096;28;20491;-81
2022/03/14 05:34:14;;;;;;;3.60;2.58;;;;;;;6.17;100.00;99747.22;5110452;28;20043;-81
2022/03/14 05:36:41;;;;;;;3.75;2.50;;;;;;;6.19;100.00;99756.03;5111405;28;20130;-82
2022/03/14 05:39:08;;;;;;;4.80;2.30;;;;;;;6.20;100.00;99762.25;5111031;28;20047;-81
2022/03/14 05:41:35;;;;;;;3.25;1.95;;;;;;;6.06;100.00;99763.53;5060764;28;20140;-82
2022/03/14 05:44:02;;;;;;;3.47;2.13;;;;;;;6.17;100.00;99798.53;5000039;28;20512;-81
2022/03/14 05:46:30;;;;;;;3.90;2.55;;;;;;;6.10;100.00;99785.72;5006792;28;20096;-82
2022/03/14 05:48:56;;;;;;;3.25;2.00;;;;;;;6.17;100.00;99803.06;5000505;28;20133;-81
2022/03/14 05:51:23;;;;;;;2.92;1.98;;;;;;;6.10;100.00;99783.88;4988363;28;20053;-81
2022/03/14 05:53:49;;;;;;;3.25;2.15;;;;;;;6.06;100.00;99793.25;4987723;28;20046;-81
2022/03/14 05:56:16;;;;;;;4.00;2.60;;;;;;;6.06;100.00;99795.94;4988494;28;20470;-81
2022/03/14 05:58:42;;;;;;;4.25;2.67;;;;;;;6.15;100.00;99814.00;5011569;28;20049;-81
2022/03/14 06:01:10;;;;;;;4.95;2.38;;;;;;;6.02;100.00;99808.88;5070881;28;20051;-81
2022/03/14 06:03:38;;;;;;;3.85;2.42;;;;;;;6.14;100.00;99827.63;5110548;28;20054;-82
2022/03/14 06:06:05;;;;;;;2.90;2.22;;;;;;;6.10;100.00;99824.38;5009333;28;20050;-81
2022/03/14 06:08:31;;;;;;;3.45;2.42;;;;;;;6.17;100.00;99846.25;5007943;28;20336;-82
2022/03/14 06:10:58;;;;;;;3.28;2.10;;;;;;;6.10;100.00;99837.03;5007511;28;20060;-82
2022/03/14 06:13:25;;;;;;;5.63;2.30;;;;;;;6.00;100.00;99845.09;5044031;28;20353;-81
2022/03/14 06:15:51;;;;;;;5.63;2.60;;;;;;;6.01;100.00;99847.66;5067257;28;20071;-82
2022/03/14 06:18:19;;;;;;;3.78;2.47;;;;;;;5.99;100.00;99843.38;5065426;28;20130;-82
2022/03/14 06:20:47;;;;;;;3.88;2.40;;;;;;;5.96;100.00;99847.19;4987986;28;20120;-82
2022/03/14 06:23:16;;;;;;;2.95;2.35;;;;;;;5.98;100.00;99841.69;4991104;28;20381;-82
2022/03/14 06:25:43;;;;;;;15.77;3.47;;;;;;;5.99;100.00;99848.78;4988781;28;20054;-82
2022/03/14 06:28:10;;;;;;;4.15;2.08;;;;;;;6.05;100.00;99859.00;4988917;28;20042;-82
2022/03/14 06:30:36;;;;;;;3.95;2.72;;;;;;;5.98;100.00;99856.03;4994764;28;20054;-82
2022/03/14 06:33:03;;;;;;;4.25;2.70;;;;;;;6.07;100.00;99866.97;5007053;28;20068;-81
2022/03/14 06:35:30;;;;;;;4.38;2.92;;;;;;;6.11;100.00;99871.09;5007212;28;20054;-82
2022/03/14 06:37:57;;;;;;;5.65;2.95;;;;;;;6.08;100.00;99877.66;5013452;28;20042;-82
2022/03/14 06:40:27;;;;;;;6.53;2.60;;;;;;;6.17;100.00;99886.75;5068947;28;20051;-83
2022/03/14 06:42:54;;;;;;;9.20;3.33;;;;;;;6.18;100.00;99883.91;5095828;28;20051;-82
2022/03/14 06:45:22;;;;;;;12.18;3.00;;;;;;;6.20;100.00;99892.75;4988081;28;20061;-82
2022/03/14 06:47:49;;;;;;;3.60;2.25;;;;;;;6.24;100.00;99889.75;5006930;28;20050;-82
2022/03/14 06:50:18;;;;;;;8.70;3.60;;;;;;;6.22;100.00;99892.59;4994905;28;20130;-82
2022/03/14 06:52:48;;;;;;;5.32;2.83;;;;;;;6.23;100.00;99879.94;5004174;28;20485;-82
2022/03/14 06:55:19;;;;;;;10.20;3.35;;;;;;;6.38;100.00;99895.63;5002127;28;20046;-83
2022/03/14 06:57:46;;;;;;;19.63;7.18;;;;;;;6.41;100.00;99901.72;4997575;28;20053;-82
2022/03/14 07:00:16;;;;;;;17.88;8.40;;;;;;;6.42;100.00;99904.28;4997139;28;20052;-81
2022/03/14 07:02:43;;;;;;;5.95;2.30;;;;;;;6.42;100.00;99917.78;4996005;28;20082;-82
2022/03/14 07:05:13;;;;;;;6.35;2.00;;;;;;;6.53;100.00;99923.06;4995328;28;20045;-82
2022/03/14 07:07:40;;;;;;;5.13;1.85;;;;;;;6.47;100.00;99904.69;5008197;28;20049;-82
2022/03/14 07:10:08;;;;;;;41.65;17.85;;;;;;;6.62;100.00;99907.84;5002171;28;20054;-82
2022/03/14 07:12:43;;;;;;;9.68;2.63;;;;;;;6.70;100.00;99932.31;4991657;28;20128;-82
2022/03/14 07:15:11;;;;;;;24.23;8.48;;;;;;;6.78;100.00;99934.31;5009348;28;20056;-82
2022/03/14 07:17:38;;;;;;;7.57;2.75;;;;;;;6.69;100.00;99921.66;5051967;28;20079;-82
2022/03/14 07:20:05;;;;;;;8.65;4.30;;;;;;;6.68;100.00;99917.25;5054000;28;20485;-82
2022/03/14 07:22:36;;;;;;;22.38;8.98;;;;;;;6.77;100.00;99942.56;4998062;28;20046;-82
2022/03/14 07:25:05;;;;;;;11.65;2.83;;;;;;;6.97;100.00;99954.22;4998465;28;20126;-82
2022/03/14 07:27:34;;;;;;;8.77;3.15;;;;;;;6.92;100.00;99933.03;4992995;28;20112;-82
2022/03/14 07:30:03;;;;;;;7.25;2.00;;;;;;;7.06;100.00;99938.03;5053535;28;20057;-84
2022/03/14 07:32:30;;;;;;;6.68;1.63;;;;;;;7.13;100.00;99932.03;5114468;28;20047;-85
2022/03/14 07:34:58;;;;;;;8.30;1.70;;;;;;;7.03;100.00;99938.31;5033849;28;20100;-84
2022/03/14 07:37:25;;;;;;;10.75;2.58;;;;;;;7.21;100.00;99960.06;4991448;28;20046;-85
2022/03/14 07:39:51;;;;;;;5.30;1.60;;;;;;;7.45;100.00;99956.03;5012341;28;20066;-88
2022/03/14 07:42:18;;;;;;;7.32;1.80;;;;;;;7.62;100.00;99966.13;5012216;28;20084;-83
2022/03/14 07:44:45;;;;;;;8.95;1.58;;;;;;;7.58;100.00;99969.25;5008998;28;20429;-80
2022/03/14 07:47:13;;;;;;;3.13;1.50;;;;;;;7.48;100.00;99977.38;5025302;28;20046;-81
2022/03/14 07:49:40;;;;;;;10.10;1.65;;;;;;;7.35;100.00;99974.16;5024502;28;20072;-80
2022/03/14 07:52:08;;;;;;;7.97;1.30;;;;;;;7.40;100.00;99994.34;5018338;28;20103;-82
2022/03/14 07:54:34;;;;;;;6.57;1.30;;;;;;;7.56;100.00;99996.47;4992313;28;20527;-82
2022/03/14 07:57:01;;;;;;;7.78;1.70;;;;;;;7.66;100.00;99979.34;4995945;28;20049;-82
2022/03/14 07:59:27;;;;;;;7.75;1.80;;;;;;;7.94;100.00;99996.50;5022731;28;20105;-82
2022/03/14 08:01:54;;;;;;;5.97;1.67;;;;;;;8.19;98.97;100011.25;4996821;28;20054;-81
2022/03/14 08:04:23;;;;;;;7.45;0.88;;;;;;;8.16;97.80;100006.13;4993835;28;20054;-82
2022/03/14 08:06:49;;;;;;;5.65;1.45;;;;;;;8.11;97.12;100019.25;5037971;28;20058;-81
2022/03/14 08:09:21;;;;;;;5.43;1.40;;;;;;;8.05;97.09;100033.38;5115584;28;20568;-81
2022/03/14 08:11:47;;;;;;;5.93;1.45;;;;;;;7.93;98.49;100033.56;5113922;28;20123;-81
2022/03/14 08:14:14;;;;;;;7.50;1.30;;;;;;;7.85;96.62;100030.72;5036575;27;20050;-81
2022/03/14 08:16:40;;;;;;;4.38;1.13;;;;;;;7.83;96.18;100026.44;4994434;28;20137;-81
2022/03/14 08:19:07;;;;;;;5.68;1.40;;;;;;;7.93;94.92;100049.81;4992684;28;20543;-81
2022/03/14 08:21:35;;;;;;;5.18;1.50;;;;;;;8.04;97.04;100048.78;5009528;28;20196;-81
2022/03/14 08:24:02;;;;;;;6.82;1.38;;;;;;;8.05;96.00;100053.19;5009868;28;20065;-81
2022/03/14 08:26:28;;;;;;;6.05;1.00;;;;;;;7.97;96.81;100053.09;5008213;28;20105;-82
2022/03/14 08:28:55;;;;;;;3.92;1.15;;;;;;;7.93;94.60;100059.78;5031207;27;20050;-81
2022/03/14 08:31:22;;;;;;;6.00;1.70;;;;;;;7.80;94.98;100033.88;5011407;28;20497;-81
2022/03/14 08:33:50;;;;;;;2.05;0.88;;;;;;;7.89;95.18;100043.00;5020595;28;20049;-81
2022/03/14 08:36:20;;;;;;;5.45;1.35;;;;;;;7.94;95.71;100039.84;5027893;28;20060;-81
2022/03/14 08:38:48;;;;;;;6.35;1.40;;;;;;;8.18;96.05;100071.84;5020719;28;20049;-81
2022/03/14 08:41:16;;;;;;;5.15;1.00;;;;;;;8.25;93.48;100082.94;5112667;28;20092;-81
2022/03/14 08:43:42;;;;;;;4.75;1.35;;;;;;;8.43;97.74;100067.63;5028988;28;20062;-82
2022/03/14 08:46:09;;;;;;;6.00;1.30;;;;;;;8.48;93.22;100059.06;4989839;28;20199;-82
2022/03/14 08:48:36;;;;;;;3.22;1.02;;;;;;;8.83;92.08;100065.59;4989470;28;20057;-82
2022/03/14 08:51:02;;;;;;;4.35;1.13;;;;;;;8.91;88.49;100057.53;5005379;28;20046;-82
2022/03/14 08:53:29;;;;;;;4.15;1.42;;;;;;;8.98;89.42;100069.50;5044275;28;20071;-83
2022/03/14 08:55:57;;;;;;;7.50;1.10;;;;;;;9.14;89.30;100065.28;5017814;28;20049;-82
2022/03/14 08:58:23;;;;;;;5.53;1.20;;;;;;;9.21;86.37;100075.34;4996308;28;20053;-82
2022/03/14 09:00:51;;;;;;;6.18;1.27;;;;;;;9.12;86.70;100072.69;4993461;28;20132;-81
2022/03/14 09:03:17;;;;;;;8.73;1.10;;;;;;;8.85;84.75;100080.72;5007059;28;20103;-82
2022/03/14 09:05:44;;;;;;;5.63;1.02;;;;;;;8.99;86.38;100082.06;5009049;28;20061;-82
2022/03/14 09:08:10;;;;;;;6.43;1.20;;;;;;;8.95;86.09;100074.38;5008764;28;20125;-81
2022/03/14 09:10:37;;;;;;;8.30;1.08;;;;;;;8.98;86.22;100082.22;5082165;28;20042;-82
2022/03/14 09:13:08;;;;;;;4.40;1.23;;;;;;;8.99;83.62;100084.75;5014496;28;20508;-81
2022/03/14 09:15:36;;;;;;;5.18;1.30;;;;;;;8.85;84.30;100064.44;5002825;28;20709;-81
2022/03/14 09:18:03;;;;;;;4.22;1.20;;;;;;;9.15;88.03;100084.09;4996714;28;20081;-81
2022/03/14 09:20:32;;;;;;;1.85;0.82;;;;;;;9.16;83.67;100076.81;5009061;28;20046;-80
2022/03/14 09:22:59;;;;;;;5.45;1.27;;;;;;;9.11;82.62;100096.25;4996785;28;20405;-81
2022/03/14 09:25:26;;;;;;;9.32;1.48;;;;;;;8.86;83.25;100071.56;4988439;28;20050;-81
2022/03/14 09:27:53;;;;;;;5.18;1.48;;;;;;;8.90;81.43;100084.81;5035286;28;20046;-81
2022/03/14 09:30:22;;;;;;;8.15;1.20;;;;;;;8.88;83.81;100086.84;5005623;28;20129;-81
2022/03/14 09:32:49;;;;;;;4.38;1.50;;;;;;;8.76;83.00;100073.50;4989212;28;20088;-82
2022/03/14 09:35:16;;;;;;;8.35;1.23;;;;;;;8.88;84.26;100090.38;4988372;28;20058;-81
2022/03/14 09:37:45;;;;;;;6.40;1.08;;;;;;;8.85;83.15;100069.00;4987388;28;20060;-82
2022/03/14 09:40:16;;;;;;;7.70;1.38;;;;;;;8.84;81.20;100087.13;4988789;28;20085;-80
2022/03/14 09:42:44;;;;;;;2.97;0.90;;;;;;;9.01;84.35;100096.31;4988848;28;20111;-80
2022/03/14 09:45:14;;;;;;;9.05;0.90;;;;;;;8.93;82.33;100076.41;5062851;28;20399;-80
2022/03/14 09:47:44;;;;;;;5.82;0.95;;;;;;;9.12;80.60;100097.97;5029106;28;20089;-81
2022/03/14 09:50:12;;;;;;;4.93;0.90;;;;;;;9.15;78.57;100086.81;5006974;28;20049;-81
2022/03/14 09:52:40;;;;;;;4.72;1.17;;;;;;;9.17;77.92;100089.38;5039734;28;20103;-80
2022/03/14 09:55:09;;;;;;;2.75;0.80;;;;;;;9.33;75.30;100107.66;5007903;28;20064;-81
2022/03/14 09:57:37;;;;;;;9.02;1.15;;;;;;;9.16;73.45;100079.53;5001260;28;20054;-80
2022/03/14 10:00:06;;;;;;;3.58;1.90;;;;;;;9.45;72.85;100100.16;4990802;28;20050;-81
2022/03/14 10:02:36;;;;;;;9.18;1.13;;;;;;;9.42;72.37;100081.47;4988348;28;20069;-81
2022/03/14 10:05:07;;;;;;;4.03;0.88;;;;;;;9.59;67.55;100101.47;5001293;28;20136;-80
2022/03/14 10:07:34;;;;;;;6.95;1.42;;;;;;;9.81;69.29;100108.28;5027543;28;20077;-80
2022/03/14 10:10:00;;;;;;;9.98;1.08;;;;;;;9.87;65.77;100121.25;5055505;28;20431;-80
2022/03/14 10:12:27;;;;;;;4.68;0.88;;;;;;;10.05;67.83;100118.50;5006634;28;20050;-81
2022/03/14 10:14:53;;;;;;;6.00;1.10;;;;;;;10.12;67.84;100092.41;5007563;28;20046;-81
2022/03/14 10:17:20;;;;;;;2.22;0.82;;;;;;;10.27;64.67;100107.09;5008044;28;20140;-80
2022/03/14 10:19:54;;;;;;;5.88;1.38;;;;;;;10.41;63.85;100100.25;5033524;28;20050;-80
2022/03/14 10:22:23;;;;;;;4.10;0.90;;;;;;;10.61;61.49;100119.06;5012956;28;20071;-81
2022/03/14 10:24:54;;;;;;;6.35;1.00;;;;;;;10.95;63.80;100119.03;5051042;28;20036;-80
2022/03/14 10:27:21;;;;;;;3.63;0.75;;;;;;;11.14;61.05;100104.31;5007128;28;20046;-81
2022/03/14 10:29:49;;;;;;;10.88;1.30;;;;;;;11.18;62.09;100125.75;5025554;28;20497;-80
2022/03/14 10:32:28;;;;;;;4.93;0.85;;;;;;;10.93;59.03;100101.16;5030863;28;20060;-81
2022/03/14 10:34:57;;;;;;;3.83;0.75;;;;;;;11.02;61.56;100100.22;5043575;28;20050;-81
2022/03/14 10:37:28;;;;;;;7.05;1.10;;;;;;;11.12;59.66;100100.91;5113202;28;20048;-81
2022/03/14 10:39:57;;;;;;;5.15;1.55;;;;;;;11.19;58.78;100106.53;5114772;28;20062;-81
2022/03/14 10:42:23;;;;;;;5.68;1.05;;;;;;;10.84;59.97;100111.19;5114796;28;20048;-81
2022/03/14 10:44:50;;;;;;;6.57;0.90;;;;;;;10.80;59.14;100105.22;5114361;27;20047;-81
2022/03/14 10:47:19;;;;;;;3.80;0.88;;;;;;;10.63;58.21;100120.59;5110132;28;20051;-81
2022/03/14 10:49:46;;;;;;;5.15;1.00;;;;;;;10.49;59.83;100106.75;5022834;28;20043;-82
2022/03/14 10:52:14;;;;;;;2.55;1.05;;;;;;;10.61;61.15;100127.22;5022173;28;20046;-81
2022/03/14 10:54:43;;;;;;;5.15;1.08;;;;;;;10.63;59.15;100134.19;4994784;28;20078;-81
2022/03/14 10:57:11;;;;;;;3.80;0.77;;;;;;;10.69;60.55;100123.69;5017448;28;20053;-81
2022/03/14 10:59:40;;;;;;;2.88;0.80;;;;;;;10.73;61.84;100115.03;5030220;28;20049;-81
2022/03/14 11:02:09;;;;;;;4.03;0.80;;;;;;;10.75;60.98;100114.91;5025290;28;20046;-81
2022/03/14 11:04:43;;;;;;;5.95;1.08;;;;;;;10.85;59.68;100121.03;4997851;28;20061;-81
2022/03/14 11:07:10;;;;;;;7.55;1.40;;;;;;;11.08;58.76;100142.22;5078417;28;20042;-81
2022/03/14 11:09:42;;;;;;;3.88;0.82;;;;;;;10.87;57.93;100119.03;5010473;28;20053;-81
2022/03/14 11:12:11;;;;;;;3.85;1.00;;;;;;;10.87;57.16;100123.59;5021566;28;20049;-81
2022/03/14 11:14:37;;;;;;;9.23;1.27;;;;;;;11.05;58.38;100123.50;5029850;28;20061;-80
2022/03/14 11:17:19;;;;;;;2.35;0.70;;;;;;;11.21;57.60;100115.38;5008155;28;20133;-81
2022/03/14 11:19:49;;;;;;;1.60;0.98;;;;;;;11.05;57.51;100112.63;4997835;28;20045;-81
2022/03/14 11:22:17;;;;;;;2.30;0.90;;;;;;;11.08;56.92;100117.72;5031265;28;20133;-80
2022/03/14 11:24:49;;;;;;;2.72;0.90;;;;;;;11.20;57.34;100115.56;4998833;27;20121;-81
2022/03/14 11:27:21;;;;;;;5.60;1.83;;;;;;;11.15;55.36;100116.06;4994760;28;20053;-81
2022/03/14 11:29:51;;;;;;;2.45;0.90;;;;;;;11.21;54.15;100101.78;4990698;28;20096;-81
2022/03/14 11:32:18;;;;;;;4.82;1.25;;;;;;;11.33;56.04;100100.44;5005623;28;20574;-81
2022/03/14 11:34:46;;;;;;;6.57;0.95;;;;;;;11.27;56.18;100103.00;4993113;28;20056;-81
2022/03/14 11:37:14;;;;;;;2.08;0.95;;;;;;;11.17;55.49;100100.44;5033080;28;20478;-81